UAL1280 KDCA-KBOS
Flight info
| Callsign | UAL1280 |
|---|---|
| Flight time | N/A |
| Altitude | 37000 |
| Route | SOOKI6 SWANN BROSS Q419 JFK ROBUC3 |
| Aircraft | A320/M-SDE3FGHIRWY/LB1 |
Departure
| Time | 2026-05-06 00:12 |
|---|---|
| Airport | Ronald Reagan Washington National Airport (KDCA) |
Arrival
| Time | N/A |
|---|---|
| Airport | Boston Logan International Airport (KBOS) |
| Time | Latitude | Longitude | Altitude | Speed | Heading |
|---|---|---|---|---|---|
| 2026-05-05 23:54 | 38.85248 | -77.04159 | 27 ft | 0 kts | 162° |
| 2026-05-06 00:05 | 38.85250 | -77.04160 | 15 ft | 2 kts | 162° |
| 2026-05-06 00:06 | 38.85267 | -77.04168 | 24 ft | 3 kts | 151° |
| 2026-05-06 00:06 | 38.85283 | -77.04182 | 24 ft | 3 kts | 128° |
| 2026-05-06 00:06 | 38.85291 | -77.04201 | 24 ft | 3 kts | 85° |
| 2026-05-06 00:06 | 38.85291 | -77.04205 | 24 ft | 0 kts | 77° |
| 2026-05-06 00:09 | 38.85305 | -77.04147 | 24 ft | 11 kts | 72° |
| 2026-05-06 00:09 | 38.85332 | -77.04040 | 24 ft | 15 kts | 69° |
| 2026-05-06 00:10 | 38.85411 | -77.03999 | 24 ft | 16 kts | 350° |
| 2026-05-06 00:10 | 38.85550 | -77.04028 | 24 ft | 23 kts | 352° |
| 2026-05-06 00:10 | 38.85710 | -77.04049 | 25 ft | 24 kts | 356° |
| 2026-05-06 00:10 | 38.85874 | -77.04062 | 26 ft | 23 kts | 358° |
| 2026-05-06 00:11 | 38.85977 | -77.03966 | 24 ft | 16 kts | 24° |
| 2026-05-06 00:11 | 38.86076 | -77.03915 | 24 ft | 15 kts | 50° |
| 2026-05-06 00:11 | 38.86039 | -77.03865 | 24 ft | 0 kts | 175° |
| 2026-05-06 00:12 | 38.85799 | -77.03842 | 27 ft | 77 kts | 175° |
| 2026-05-06 00:12 | 38.85018 | -77.03767 | 30 ft | 143 kts | 177° |
| 2026-05-06 00:12 | 38.83935 | -77.03642 | 561 ft | 156 kts | 176° |
| 2026-05-06 00:12 | 38.82829 | -77.03508 | 1391 ft | 165 kts | 180° |
| 2026-05-06 00:13 | 38.81691 | -77.03203 | 2232 ft | 168 kts | 166° |
| 2026-05-06 00:13 | 38.80656 | -77.02516 | 2977 ft | 166 kts | 160° |
| 2026-05-06 00:13 | 38.79677 | -77.01738 | 3581 ft | 165 kts | 156° |
| 2026-05-06 00:13 | 38.78806 | -77.00767 | 4151 ft | 170 kts | 143° |
| 2026-05-06 00:14 | 38.78314 | -76.99966 | 4491 ft | 175 kts | 135° |
| 2026-05-06 00:14 | 38.77711 | -76.98568 | 5010 ft | 183 kts | 125° |
| 2026-05-06 00:14 | 38.77213 | -76.97053 | 5520 ft | 186 kts | 122° |
| 2026-05-06 00:14 | 38.76827 | -76.94874 | 6288 ft | 195 kts | 96° |
| 2026-05-06 00:15 | 38.76942 | -76.93702 | 6660 ft | 198 kts | 83° |
| 2026-05-06 00:15 | 38.77356 | -76.91987 | 7233 ft | 206 kts | 71° |
| 2026-05-06 00:15 | 38.78010 | -76.90294 | 7816 ft | 218 kts | 60° |
| 2026-05-06 00:15 | 38.78914 | -76.88719 | 8475 ft | 224 kts | 44° |
| 2026-05-06 00:16 | 38.80121 | -76.87486 | 9266 ft | 223 kts | 31° |
| 2026-05-06 00:16 | 38.81395 | -76.86338 | 9994 ft | 224 kts | 30° |
| 2026-05-06 00:16 | 38.82668 | -76.85225 | 10773 ft | 220 kts | 28° |
| 2026-05-06 00:16 | 38.83980 | -76.84140 | 11314 ft | 232 kts | 28° |
| 2026-05-06 00:17 | 38.85363 | -76.82841 | 11638 ft | 258 kts | 35° |
| 2026-05-06 00:17 | 38.86870 | -76.81391 | 11985 ft | 282 kts | 28° |
| 2026-05-06 00:17 | 38.88572 | -76.79940 | 12438 ft | 306 kts | 32° |
| 2026-05-06 00:17 | 38.90323 | -76.78205 | 12671 ft | 330 kts | 36° |
| 2026-05-06 00:18 | 38.92137 | -76.76226 | 12809 ft | 353 kts | 38° |
| 2026-05-06 00:18 | 38.94026 | -76.74070 | 13004 ft | 373 kts | 39° |
| 2026-05-06 00:18 | 38.95983 | -76.71804 | 13519 ft | 381 kts | 39° |
| 2026-05-06 00:18 | 38.97964 | -76.69519 | 14098 ft | 385 kts | 39° |
| 2026-05-06 00:19 | 38.99977 | -76.67223 | 14664 ft | 389 kts | 39° |
| 2026-05-06 00:19 | 39.02002 | -76.64891 | 15229 ft | 393 kts | 40° |
| 2026-05-06 00:19 | 39.03991 | -76.62452 | 15794 ft | 397 kts | 43° |
| 2026-05-06 00:19 | 39.05959 | -76.59929 | 16324 ft | 402 kts | 43° |
| 2026-05-06 00:20 | 39.07929 | -76.57353 | 16839 ft | 406 kts | 44° |
| 2026-05-06 00:20 | 39.09781 | -76.54579 | 17379 ft | 411 kts | 54° |
| 2026-05-06 00:20 | 39.11226 | -76.51381 | 17930 ft | 415 kts | 66° |
| 2026-05-06 00:20 | 39.12216 | -76.47878 | 18439 ft | 418 kts | 77° |
| 2026-05-06 00:21 | 39.12748 | -76.44193 | 18946 ft | 420 kts | 83° |
| 2026-05-06 00:21 | 39.13572 | -76.40577 | 19470 ft | 426 kts | 64° |
| 2026-05-06 00:21 | 39.15183 | -76.37361 | 19987 ft | 429 kts | 52° |
| 2026-05-06 00:21 | 39.16980 | -76.34281 | 20503 ft | 432 kts | 52° |
| 2026-05-06 00:22 | 39.18792 | -76.31172 | 21004 ft | 436 kts | 52° |
| 2026-05-06 00:22 | 39.20612 | -76.28029 | 21499 ft | 439 kts | 53° |
| 2026-05-06 00:22 | 39.22437 | -76.24857 | 21999 ft | 442 kts | 53° |
| 2026-05-06 00:22 | 39.24273 | -76.21653 | 22476 ft | 446 kts | 53° |
| 2026-05-06 00:23 | 39.26122 | -76.18422 | 22950 ft | 449 kts | 53° |
| 2026-05-06 00:23 | 39.27984 | -76.15161 | 23418 ft | 452 kts | 53° |
| 2026-05-06 00:23 | 39.29858 | -76.11880 | 23818 ft | 454 kts | 53° |
| 2026-05-06 00:23 | 39.31736 | -76.08594 | 24239 ft | 456 kts | 53° |
| 2026-05-06 00:24 | 39.33599 | -76.05335 | 24652 ft | 457 kts | 53° |
| 2026-05-06 00:24 | 39.35491 | -76.02021 | 25050 ft | 459 kts | 53° |
| 2026-05-06 00:24 | 39.37384 | -75.98694 | 25451 ft | 460 kts | 53° |
| 2026-05-06 00:24 | 39.39278 | -75.95353 | 25839 ft | 462 kts | 52° |
| 2026-05-06 00:25 | 39.41186 | -75.91990 | 26234 ft | 464 kts | 52° |
| 2026-05-06 00:25 | 39.43102 | -75.88614 | 26587 ft | 466 kts | 52° |
| 2026-05-06 00:25 | 39.45023 | -75.85226 | 26953 ft | 468 kts | 52° |
| 2026-05-06 00:25 | 39.46948 | -75.81822 | 27320 ft | 470 kts | 52° |
| 2026-05-06 00:26 | 39.48877 | -75.78407 | 27690 ft | 471 kts | 52° |
| 2026-05-06 00:26 | 39.50814 | -75.74972 | 28073 ft | 472 kts | 52° |
| 2026-05-06 00:26 | 39.52754 | -75.71530 | 28449 ft | 474 kts | 52° |
| 2026-05-06 00:26 | 39.54699 | -75.68081 | 28801 ft | 475 kts | 51° |
| 2026-05-06 00:27 | 39.56654 | -75.64611 | 29152 ft | 477 kts | 51° |
| 2026-05-06 00:27 | 39.58615 | -75.61124 | 29497 ft | 479 kts | 51° |
| 2026-05-06 00:27 | 39.60584 | -75.57613 | 29831 ft | 481 kts | 51° |
| 2026-05-06 00:27 | 39.62556 | -75.54099 | 30128 ft | 483 kts | 51° |
| 2026-05-06 00:28 | 39.64534 | -75.50574 | 30481 ft | 482 kts | 51° |
| 2026-05-06 00:28 | 39.66507 | -75.47058 | 30894 ft | 481 kts | 50° |
| 2026-05-06 00:28 | 39.68510 | -75.43598 | 31295 ft | 479 kts | 49° |
| 2026-05-06 00:28 | 39.70554 | -75.40194 | 31713 ft | 477 kts | 47° |
| 2026-05-06 00:29 | 39.72614 | -75.36839 | 32155 ft | 474 kts | 47° |
| 2026-05-06 00:29 | 39.74678 | -75.33500 | 32582 ft | 473 kts | 46° |
| 2026-05-06 00:29 | 39.76730 | -75.30168 | 33006 ft | 471 kts | 46° |
| 2026-05-06 00:29 | 39.78766 | -75.26837 | 33424 ft | 470 kts | 46° |
| 2026-05-06 00:30 | 39.80790 | -75.23496 | 33844 ft | 469 kts | 46° |
| 2026-05-06 00:30 | 39.82798 | -75.20159 | 34209 ft | 468 kts | 46° |
| 2026-05-06 00:30 | 39.84798 | -75.16822 | 34554 ft | 467 kts | 46° |
| 2026-05-06 00:30 | 39.86789 | -75.13494 | 34890 ft | 465 kts | 46° |
| 2026-05-06 00:31 | 39.88774 | -75.10176 | 35210 ft | 464 kts | 46° |